sensor_id;sensor_type;location;lat;lon;timestamp;temperature;humidity
18717;DHT22;9487;50.892;6.906;2023-08-07T00:02:24;13.70;99.90
18717;DHT22;9487;50.892;6.906;2023-08-07T00:04:51;13.60;99.90
18717;DHT22;9487;50.892;6.906;2023-08-07T00:07:18;13.50;99.90
18717;DHT22;9487;50.892;6.906;2023-08-07T00:09:46;13.40;99.90
18717;DHT22;9487;50.892;6.906;2023-08-07T00:12:14;13.40;99.90
18717;DHT22;9487;50.892;6.906;2023-08-07T00:14:41;13.40;99.90
18717;DHT22;9487;50.892;6.906;2023-08-07T00:17:08;13.30;99.90
18717;DHT22;9487;50.892;6.906;2023-08-07T00:19:35;13.30;99.90
18717;DHT22;9487;50.892;6.906;2023-08-07T00:22:02;13.30;99.90
18717;DHT22;9487;50.892;6.906;2023-08-07T00:24:29;13.30;99.90
18717;DHT22;9487;50.892;6.906;2023-08-07T00:26:57;13.20;99.90
18717;DHT22;9487;50.892;6.906;2023-08-07T00:29:24;13.30;99.90
18717;DHT22;9487;50.892;6.906;2023-08-07T00:31:52;13.30;99.90
18717;DHT22;9487;50.892;6.906;2023-08-07T00:34:20;13.30;99.90
18717;DHT22;9487;50.892;6.906;2023-08-07T00:36:48;13.40;99.90
18717;DHT22;9487;50.892;6.906;2023-08-07T00:39:16;13.30;99.90
18717;DHT22;9487;50.892;6.906;2023-08-07T00:41:42;13.40;99.90
18717;DHT22;9487;50.892;6.906;2023-08-07T00:44:11;13.40;99.90
18717;DHT22;9487;50.892;6.906;2023-08-07T00:46:37;13.40;99.90
18717;DHT22;9487;50.892;6.906;2023-08-07T00:49:05;13.30;99.90
18717;DHT22;9487;50.892;6.906;2023-08-07T00:51:33;13.30;99.90
18717;DHT22;9487;50.892;6.906;2023-08-07T00:54:01;13.40;99.90
18717;DHT22;9487;50.892;6.906;2023-08-07T00:56:29;13.30;99.90
18717;DHT22;9487;50.892;6.906;2023-08-07T00:58:58;13.30;99.90
18717;DHT22;9487;50.892;6.906;2023-08-07T01:01:27;13.30;99.90
18717;DHT22;9487;50.892;6.906;2023-08-07T01:03:54;13.10;99.90
18717;DHT22;9487;50.892;6.906;2023-08-07T01:06:21;13.20;99.90
18717;DHT22;9487;50.892;6.906;2023-08-07T01:08:49;13.10;99.90
18717;DHT22;9487;50.892;6.906;2023-08-07T01:11:22;13.20;99.90
18717;DHT22;9487;50.892;6.906;2023-08-07T01:13:55;13.20;99.90
18717;DHT22;9487;50.892;6.906;2023-08-07T01:16:35;13.20;99.90
18717;DHT22;9487;50.892;6.906;2023-08-07T01:19:03;13.20;99.90
18717;DHT22;9487;50.892;6.906;2023-08-07T01:21:33;13.20;99.90
18717;DHT22;9487;50.892;6.906;2023-08-07T01:24:01;13.10;99.90
18717;DHT22;9487;50.892;6.906;2023-08-07T01:26:28;13.10;99.90
18717;DHT22;9487;50.892;6.906;2023-08-07T01:29:03;13.20;99.90
18717;DHT22;9487;50.892;6.906;2023-08-07T01:31:33;13.30;99.90
18717;DHT22;9487;50.892;6.906;2023-08-07T01:34:05;13.30;99.90
18717;DHT22;9487;50.892;6.906;2023-08-07T01:36:34;13.30;99.90
18717;DHT22;9487;50.892;6.906;2023-08-07T01:39:03;13.40;99.90
18717;DHT22;9487;50.892;6.906;2023-08-07T01:41:32;13.50;99.90
18717;DHT22;9487;50.892;6.906;2023-08-07T01:44:01;13.50;99.90
18717;DHT22;9487;50.892;6.906;2023-08-07T01:46:29;13.60;99.90
18717;DHT22;9487;50.892;6.906;2023-08-07T01:48:57;13.50;99.90
18717;DHT22;9487;50.892;6.906;2023-08-07T01:51:24;13.60;99.90
18717;DHT22;9487;50.892;6.906;2023-08-07T01:53:51;13.60;99.90
18717;DHT22;9487;50.892;6.906;2023-08-07T01:56:19;13.60;99.90
18717;DHT22;9487;50.892;6.906;2023-08-07T01:58:48;13.50;99.90
18717;DHT22;9487;50.892;6.906;2023-08-07T02:01:14;13.60;99.90
18717;DHT22;9487;50.892;6.906;2023-08-07T02:03:42;13.60;99.90
18717;DHT22;9487;50.892;6.906;2023-08-07T02:06:09;13.60;99.90
18717;DHT22;9487;50.892;6.906;2023-08-07T02:08:36;13.60;99.90
18717;DHT22;9487;50.892;6.906;2023-08-07T02:11:03;13.70;99.90
18717;DHT22;9487;50.892;6.906;2023-08-07T02:13:31;13.70;99.90
18717;DHT22;9487;50.892;6.906;2023-08-07T02:15:58;13.70;99.90
18717;DHT22;9487;50.892;6.906;2023-08-07T02:18:25;13.60;99.90
18717;DHT22;9487;50.892;6.906;2023-08-07T02:20:52;13.60;99.90
18717;DHT22;9487;50.892;6.906;2023-08-07T02:23:19;13.70;99.90
18717;DHT22;9487;50.892;6.906;2023-08-07T02:25:49;13.70;99.90
18717;DHT22;9487;50.892;6.906;2023-08-07T02:28:16;13.70;99.90
18717;DHT22;9487;50.892;6.906;2023-08-07T02:30:46;13.80;99.90
18717;DHT22;9487;50.892;6.906;2023-08-07T02:33:16;13.80;99.90
18717;DHT22;9487;50.892;6.906;2023-08-07T02:35:44;13.70;99.90
18717;DHT22;9487;50.892;6.906;2023-08-07T02:38:13;13.80;99.90
18717;DHT22;9487;50.892;6.906;2023-08-07T02:40:42;13.80;99.90
18717;DHT22;9487;50.892;6.906;2023-08-07T02:43:10;13.80;99.90
18717;DHT22;9487;50.892;6.906;2023-08-07T02:45:37;13.80;99.90
18717;DHT22;9487;50.892;6.906;2023-08-07T02:48:05;13.80;99.90
18717;DHT22;9487;50.892;6.906;2023-08-07T02:50:32;13.70;99.90
18717;DHT22;9487;50.892;6.906;2023-08-07T02:53:03;13.70;99.90
18717;DHT22;9487;50.892;6.906;2023-08-07T02:55:29;13.60;99.90
18717;DHT22;9487;50.892;6.906;2023-08-07T02:57:56;13.50;99.90
18717;DHT22;9487;50.892;6.906;2023-08-07T03:00:23;13.50;99.90
18717;DHT22;9487;50.892;6.906;2023-08-07T03:02:51;13.50;99.90
18717;DHT22;9487;50.892;6.906;2023-08-07T03:05:19;13.50;99.90
18717;DHT22;9487;50.892;6.906;2023-08-07T03:07:47;13.50;99.90
18717;DHT22;9487;50.892;6.906;2023-08-07T03:10:14;13.40;99.90
18717;DHT22;9487;50.892;6.906;2023-08-07T03:12:41;13.50;99.90
18717;DHT22;9487;50.892;6.906;2023-08-07T03:15:14;13.50;99.90
18717;DHT22;9487;50.892;6.906;2023-08-07T03:17:40;13.50;99.90
18717;DHT22;9487;50.892;6.906;2023-08-07T03:20:08;13.40;99.90
18717;DHT22;9487;50.892;6.906;2023-08-07T03:22:37;13.40;99.90
18717;DHT22;9487;50.892;6.906;2023-08-07T03:25:06;13.40;99.90
18717;DHT22;9487;50.892;6.906;2023-08-07T03:27:33;13.30;99.90
18717;DHT22;9487;50.892;6.906;2023-08-07T03:30:01;13.30;99.90
18717;DHT22;9487;50.892;6.906;2023-08-07T03:32:28;13.20;99.90
18717;DHT22;9487;50.892;6.906;2023-08-07T03:34:55;13.10;99.90
18717;DHT22;9487;50.892;6.906;2023-08-07T03:37:23;13.10;99.90
18717;DHT22;9487;50.892;6.906;2023-08-07T03:39:53;13.10;99.90
18717;DHT22;9487;50.892;6.906;2023-08-07T03:42:20;13.20;99.90
18717;DHT22;9487;50.892;6.906;2023-08-07T03:44:47;13.10;99.90
18717;DHT22;9487;50.892;6.906;2023-08-07T03:47:14;13.10;99.90
18717;DHT22;9487;50.892;6.906;2023-08-07T03:49:41;13.10;99.90
18717;DHT22;9487;50.892;6.906;2023-08-07T03:52:09;13.10;99.90
18717;DHT22;9487;50.892;6.906;2023-08-07T03:54:36;13.00;99.90
18717;DHT22;9487;50.892;6.906;2023-08-07T03:57:10;13.00;99.90
18717;DHT22;9487;50.892;6.906;2023-08-07T03:59:37;13.00;99.90
18717;DHT22;9487;50.892;6.906;2023-08-07T04:02:05;13.00;99.90
18717;DHT22;9487;50.892;6.906;2023-08-07T04:04:31;13.00;99.90
18717;DHT22;9487;50.892;6.906;2023-08-07T04:06:58;12.90;99.90
18717;DHT22;9487;50.892;6.906;2023-08-07T04:09:25;12.90;99.90
18717;DHT22;9487;50.892;6.906;2023-08-07T04:11:55;12.90;99.90
18717;DHT22;9487;50.892;6.906;2023-08-07T04:14:24;12.80;99.90
18717;DHT22;9487;50.892;6.906;2023-08-07T04:16:50;12.80;99.90
18717;DHT22;9487;50.892;6.906;2023-08-07T04:19:18;12.90;99.90
18717;DHT22;9487;50.892;6.906;2023-08-07T04:21:44;12.90;99.90
18717;DHT22;9487;50.892;6.906;2023-08-07T04:24:11;12.90;99.90
18717;DHT22;9487;50.892;6.906;2023-08-07T04:26:39;12.80;99.90
18717;DHT22;9487;50.892;6.906;2023-08-07T04:29:06;12.80;99.90
18717;DHT22;9487;50.892;6.906;2023-08-07T04:31:35;12.70;99.90
18717;DHT22;9487;50.892;6.906;2023-08-07T04:34:03;12.80;99.90
18717;DHT22;9487;50.892;6.906;2023-08-07T04:36:30;12.90;99.90
18717;DHT22;9487;50.892;6.906;2023-08-07T04:38:57;12.90;99.90
18717;DHT22;9487;50.892;6.906;2023-08-07T04:41:24;12.80;99.90
18717;DHT22;9487;50.892;6.906;2023-08-07T04:43:51;12.80;99.90
18717;DHT22;9487;50.892;6.906;2023-08-07T04:46:18;12.80;99.90
18717;DHT22;9487;50.892;6.906;2023-08-07T04:48:47;12.80;99.90
18717;DHT22;9487;50.892;6.906;2023-08-07T04:51:14;12.80;99.90
18717;DHT22;9487;50.892;6.906;2023-08-07T04:53:41;12.80;99.90
18717;DHT22;9487;50.892;6.906;2023-08-07T04:56:08;12.80;99.90
18717;DHT22;9487;50.892;6.906;2023-08-07T04:58:35;12.80;99.90
18717;DHT22;9487;50.892;6.906;2023-08-07T05:01:02;12.80;99.90
18717;DHT22;9487;50.892;6.906;2023-08-07T05:03:32;12.80;99.90
18717;DHT22;9487;50.892;6.906;2023-08-07T05:06:01;12.90;99.90
18717;DHT22;9487;50.892;6.906;2023-08-07T05:08:28;12.90;99.90
18717;DHT22;9487;50.892;6.906;2023-08-07T05:10:58;13.00;99.90
18717;DHT22;9487;50.892;6.906;2023-08-07T05:13:25;13.00;99.90
18717;DHT22;9487;50.892;6.906;2023-08-07T05:15:52;13.00;99.90
18717;DHT22;9487;50.892;6.906;2023-08-07T05:18:20;13.00;99.90
18717;DHT22;9487;50.892;6.906;2023-08-07T05:20:47;13.00;99.90
18717;DHT22;9487;50.892;6.906;2023-08-07T05:23:16;13.00;99.90
18717;DHT22;9487;50.892;6.906;2023-08-07T05:25:45;13.10;99.90
18717;DHT22;9487;50.892;6.906;2023-08-07T05:28:14;13.20;99.90
18717;DHT22;9487;50.892;6.906;2023-08-07T05:30:41;13.20;99.90
18717;DHT22;9487;50.892;6.906;2023-08-07T05:33:10;13.20;99.90
18717;DHT22;9487;50.892;6.906;2023-08-07T05:35:38;13.20;99.90
18717;DHT22;9487;50.892;6.906;2023-08-07T05:38:06;13.30;99.90
18717;DHT22;9487;50.892;6.906;2023-08-07T05:40:34;13.20;99.90
18717;DHT22;9487;50.892;6.906;2023-08-07T05:43:02;13.30;99.90
18717;DHT22;9487;50.892;6.906;2023-08-07T05:45:30;13.40;99.90
18717;DHT22;9487;50.892;6.906;2023-08-07T05:47:58;13.40;99.90
18717;DHT22;9487;50.892;6.906;2023-08-07T05:50:25;13.40;99.90
18717;DHT22;9487;50.892;6.906;2023-08-07T05:52:52;13.30;99.90
18717;DHT22;9487;50.892;6.906;2023-08-07T05:55:19;13.40;99.90
18717;DHT22;9487;50.892;6.906;2023-08-07T05:57:50;13.40;99.90
18717;DHT22;9487;50.892;6.906;2023-08-07T06:00:17;13.50;99.90
18717;DHT22;9487;50.892;6.906;2023-08-07T06:02:45;13.50;99.90
18717;DHT22;9487;50.892;6.906;2023-08-07T06:05:12;13.50;99.90
18717;DHT22;9487;50.892;6.906;2023-08-07T06:07:40;13.50;99.90
18717;DHT22;9487;50.892;6.906;2023-08-07T06:10:08;13.50;99.90
18717;DHT22;9487;50.892;6.906;2023-08-07T06:12:35;13.50;99.90
18717;DHT22;9487;50.892;6.906;2023-08-07T06:15:05;13.50;99.90
18717;DHT22;9487;50.892;6.906;2023-08-07T06:17:32;13.50;99.90
18717;DHT22;9487;50.892;6.906;2023-08-07T06:19:58;13.50;99.90
18717;DHT22;9487;50.892;6.906;2023-08-07T06:22:25;13.50;99.90
18717;DHT22;9487;50.892;6.906;2023-08-07T06:24:52;13.50;99.90
18717;DHT22;9487;50.892;6.906;2023-08-07T06:27:21;13.40;99.90
18717;DHT22;9487;50.892;6.906;2023-08-07T06:29:49;13.50;99.90
18717;DHT22;9487;50.892;6.906;2023-08-07T06:32:17;13.50;99.90
18717;DHT22;9487;50.892;6.906;2023-08-07T06:34:44;13.50;99.90
18717;DHT22;9487;50.892;6.906;2023-08-07T06:37:14;13.50;99.90
18717;DHT22;9487;50.892;6.906;2023-08-07T06:39:41;13.50;99.90
18717;DHT22;9487;50.892;6.906;2023-08-07T06:42:09;13.40;99.90
18717;DHT22;9487;50.892;6.906;2023-08-07T06:44:36;13.20;99.90
18717;DHT22;9487;50.892;6.906;2023-08-07T06:47:03;13.10;99.90
18717;DHT22;9487;50.892;6.906;2023-08-07T06:49:31;13.10;99.90
18717;DHT22;9487;50.892;6.906;2023-08-07T06:51:58;13.00;99.90
18717;DHT22;9487;50.892;6.906;2023-08-07T06:54:25;12.90;99.90
18717;DHT22;9487;50.892;6.906;2023-08-07T06:56:52;13.00;99.90
18717;DHT22;9487;50.892;6.906;2023-08-07T06:59:20;13.00;99.90
18717;DHT22;9487;50.892;6.906;2023-08-07T07:01:46;13.00;99.90
18717;DHT22;9487;50.892;6.906;2023-08-07T07:04:14;13.00;99.90
18717;DHT22;9487;50.892;6.906;2023-08-07T07:06:43;13.00;99.90
18717;DHT22;9487;50.892;6.906;2023-08-07T07:09:13;12.90;99.90
18717;DHT22;9487;50.892;6.906;2023-08-07T07:11:42;12.90;99.90
18717;DHT22;9487;50.892;6.906;2023-08-07T07:14:09;12.90;99.90
18717;DHT22;9487;50.892;6.906;2023-08-07T07:16:37;12.90;99.90
18717;DHT22;9487;50.892;6.906;2023-08-07T07:19:05;12.90;99.90
18717;DHT22;9487;50.892;6.906;2023-08-07T07:21:33;12.90;99.90
18717;DHT22;9487;50.892;6.906;2023-08-07T07:24:05;12.90;99.90
18717;DHT22;9487;50.892;6.906;2023-08-07T07:26:38;12.90;99.90
18717;DHT22;9487;50.892;6.906;2023-08-07T07:29:05;12.90;99.90
18717;DHT22;9487;50.892;6.906;2023-08-07T07:31:32;12.80;99.90
18717;DHT22;9487;50.892;6.906;2023-08-07T07:33:59;12.80;99.90
18717;DHT22;9487;50.892;6.906;2023-08-07T07:36:26;12.90;99.90
18717;DHT22;9487;50.892;6.906;2023-08-07T07:38:53;12.80;99.90
18717;DHT22;9487;50.892;6.906;2023-08-07T07:41:22;12.90;99.90
18717;DHT22;9487;50.892;6.906;2023-08-07T07:43:49;13.00;99.90
18717;DHT22;9487;50.892;6.906;2023-08-07T07:46:16;13.00;99.90
18717;DHT22;9487;50.892;6.906;2023-08-07T07:48:43;13.00;99.90
18717;DHT22;9487;50.892;6.906;2023-08-07T07:51:15;13.00;99.90
18717;DHT22;9487;50.892;6.906;2023-08-07T07:53:42;13.10;99.90
18717;DHT22;9487;50.892;6.906;2023-08-07T07:56:08;13.10;99.90
18717;DHT22;9487;50.892;6.906;2023-08-07T07:58:37;13.10;99.90
18717;DHT22;9487;50.892;6.906;2023-08-07T08:01:05;13.10;99.90
18717;DHT22;9487;50.892;6.906;2023-08-07T08:03:33;13.10;99.90
18717;DHT22;9487;50.892;6.906;2023-08-07T08:06:00;13.10;99.90
18717;DHT22;9487;50.892;6.906;2023-08-07T08:08:27;13.20;99.90
18717;DHT22;9487;50.892;6.906;2023-08-07T08:10:54;13.30;99.90
18717;DHT22;9487;50.892;6.906;2023-08-07T08:13:21;13.40;99.90
18717;DHT22;9487;50.892;6.906;2023-08-07T08:15:50;13.40;99.90
18717;DHT22;9487;50.892;6.906;2023-08-07T08:18:17;13.50;99.90
18717;DHT22;9487;50.892;6.906;2023-08-07T08:20:44;13.50;99.90
18717;DHT22;9487;50.892;6.906;2023-08-07T08:23:11;13.60;99.90
18717;DHT22;9487;50.892;6.906;2023-08-07T08:25:38;13.70;99.90
18717;DHT22;9487;50.892;6.906;2023-08-07T08:28:05;13.80;99.90
18717;DHT22;9487;50.892;6.906;2023-08-07T08:30:32;13.90;99.90
18717;DHT22;9487;50.892;6.906;2023-08-07T08:33:01;13.90;99.90
18717;DHT22;9487;50.892;6.906;2023-08-07T08:35:31;14.00;99.90
18717;DHT22;9487;50.892;6.906;2023-08-07T08:37:57;14.10;99.90
18717;DHT22;9487;50.892;6.906;2023-08-07T08:40:25;14.20;99.90
18717;DHT22;9487;50.892;6.906;2023-08-07T08:42:52;14.20;99.90
18717;DHT22;9487;50.892;6.906;2023-08-07T08:45:24;14.30;99.90
18717;DHT22;9487;50.892;6.906;2023-08-07T08:47:54;14.30;99.90
18717;DHT22;9487;50.892;6.906;2023-08-07T08:50:23;14.40;99.90
18717;DHT22;9487;50.892;6.906;2023-08-07T08:52:51;14.40;99.90
18717;DHT22;9487;50.892;6.906;2023-08-07T08:55:20;14.40;95.40
18717;DHT22;9487;50.892;6.906;2023-08-07T08:57:47;14.40;92.80
18717;DHT22;9487;50.892;6.906;2023-08-07T09:00:16;14.40;99.90
18717;DHT22;9487;50.892;6.906;2023-08-07T09:02:46;14.50;94.20
18717;DHT22;9487;50.892;6.906;2023-08-07T09:05:14;14.60;53.40
18717;DHT22;9487;50.892;6.906;2023-08-07T09:07:44;14.70;28.50
18717;DHT22;9487;50.892;6.906;2023-08-07T09:10:12;14.80;21.30
18717;DHT22;9487;50.892;6.906;2023-08-07T09:12:45;14.90;12.40
18717;DHT22;9487;50.892;6.906;2023-08-07T09:15:16;15.00;1.00
18717;DHT22;9487;50.892;6.906;2023-08-07T09:17:45;15.10;1.00
18717;DHT22;9487;50.892;6.906;2023-08-07T09:20:12;15.20;1.00
18717;DHT22;9487;50.892;6.906;2023-08-07T09:22:40;15.30;1.00
18717;DHT22;9487;50.892;6.906;2023-08-07T09:25:09;15.30;1.00
18717;DHT22;9487;50.892;6.906;2023-08-07T09:27:37;15.30;1.00
18717;DHT22;9487;50.892;6.906;2023-08-07T09:30:06;15.20;1.00
18717;DHT22;9487;50.892;6.906;2023-08-07T09:32:34;15.20;1.00
18717;DHT22;9487;50.892;6.906;2023-08-07T09:35:02;15.30;1.00
18717;DHT22;9487;50.892;6.906;2023-08-07T09:37:32;15.20;1.00
18717;DHT22;9487;50.892;6.906;2023-08-07T09:40:02;15.20;1.00
18717;DHT22;9487;50.892;6.906;2023-08-07T09:42:32;15.40;1.00
18717;DHT22;9487;50.892;6.906;2023-08-07T09:45:00;15.20;1.00
18717;DHT22;9487;50.892;6.906;2023-08-07T09:47:27;15.20;1.00
18717;DHT22;9487;50.892;6.906;2023-08-07T09:49:55;15.30;1.00
18717;DHT22;9487;50.892;6.906;2023-08-07T09:52:25;15.30;1.00
18717;DHT22;9487;50.892;6.906;2023-08-07T09:54:56;15.40;1.00
18717;DHT22;9487;50.892;6.906;2023-08-07T09:57:24;15.50;1.00
18717;DHT22;9487;50.892;6.906;2023-08-07T09:59:54;15.40;1.00
18717;DHT22;9487;50.892;6.906;2023-08-07T10:02:21;15.60;1.00
18717;DHT22;9487;50.892;6.906;2023-08-07T10:04:50;15.50;1.00
18717;DHT22;9487;50.892;6.906;2023-08-07T10:07:17;15.70;1.00
18717;DHT22;9487;50.892;6.906;2023-08-07T10:09:46;15.80;1.00
18717;DHT22;9487;50.892;6.906;2023-08-07T10:12:14;16.00;1.00
18717;DHT22;9487;50.892;6.906;2023-08-07T10:14:43;15.90;1.00
18717;DHT22;9487;50.892;6.906;2023-08-07T10:17:13;16.00;1.00
18717;DHT22;9487;50.892;6.906;2023-08-07T10:19:43;16.20;1.00
18717;DHT22;9487;50.892;6.906;2023-08-07T10:22:10;16.30;99.90
18717;DHT22;9487;50.892;6.906;2023-08-07T10:24:40;16.20;1.00
18717;DHT22;9487;50.892;6.906;2023-08-07T10:27:09;16.30;1.00
18717;DHT22;9487;50.892;6.906;2023-08-07T10:29:37;16.50;1.00
18717;DHT22;9487;50.892;6.906;2023-08-07T10:32:05;16.80;1.00
18717;DHT22;9487;50.892;6.906;2023-08-07T10:34:35;17.00;99.90
18717;DHT22;9487;50.892;6.906;2023-08-07T10:37:06;16.90;99.90
18717;DHT22;9487;50.892;6.906;2023-08-07T10:39:33;16.90;60.70
18717;DHT22;9487;50.892;6.906;2023-08-07T10:42:00;16.90;99.90
18717;DHT22;9487;50.892;6.906;2023-08-07T10:47:01;17.50;1.00
18717;DHT22;9487;50.892;6.906;2023-08-07T10:49:32;17.70;99.90
18717;DHT22;9487;50.892;6.906;2023-08-07T10:52:02;17.90;1.00
18717;DHT22;9487;50.892;6.906;2023-08-07T10:54:29;17.80;99.90
18717;DHT22;9487;50.892;6.906;2023-08-07T10:56:56;17.80;99.90
18717;DHT22;9487;50.892;6.906;2023-08-07T10:59:29;17.60;1.00
18717;DHT22;9487;50.892;6.906;2023-08-07T11:01:58;17.80;1.00
18717;DHT22;9487;50.892;6.906;2023-08-07T11:04:25;17.90;99.90
18717;DHT22;9487;50.892;6.906;2023-08-07T11:06:52;17.90;1.00
18717;DHT22;9487;50.892;6.906;2023-08-07T11:09:21;18.00;32.60
18717;DHT22;9487;50.892;6.906;2023-08-07T11:11:48;17.90;1.00
18717;DHT22;9487;50.892;6.906;2023-08-07T11:14:16;17.90;99.90
18717;DHT22;9487;50.892;6.906;2023-08-07T11:16:44;18.10;1.00
18717;DHT22;9487;50.892;6.906;2023-08-07T11:19:14;18.00;99.90
18717;DHT22;9487;50.892;6.906;2023-08-07T11:21:42;18.00;99.90
18717;DHT22;9487;50.892;6.906;2023-08-07T11:24:14;18.10;99.90
18717;DHT22;9487;50.892;6.906;2023-08-07T11:26:46;18.10;93.60
18717;DHT22;9487;50.892;6.906;2023-08-07T11:29:16;18.20;99.90
18717;DHT22;9487;50.892;6.906;2023-08-07T11:31:43;18.40;1.00
18717;DHT22;9487;50.892;6.906;2023-08-07T11:34:11;18.50;93.00
18717;DHT22;9487;50.892;6.906;2023-08-07T11:36:41;18.50;99.90
18717;DHT22;9487;50.892;6.906;2023-08-07T11:39:09;18.70;1.00
18717;DHT22;9487;50.892;6.906;2023-08-07T11:41:37;18.80;1.00
18717;DHT22;9487;50.892;6.906;2023-08-07T11:44:07;18.90;1.00
18717;DHT22;9487;50.892;6.906;2023-08-07T11:46:36;18.90;99.90
18717;DHT22;9487;50.892;6.906;2023-08-07T11:49:04;19.00;99.90
18717;DHT22;9487;50.892;6.906;2023-08-07T11:51:31;19.10;1.00
18717;DHT22;9487;50.892;6.906;2023-08-07T11:53:58;19.40;74.90
18717;DHT22;9487;50.892;6.906;2023-08-07T11:56:25;19.40;1.00
18717;DHT22;9487;50.892;6.906;2023-08-07T11:58:53;19.20;99.90
18717;DHT22;9487;50.892;6.906;2023-08-07T12:01:24;18.90;1.00
18717;DHT22;9487;50.892;6.906;2023-08-07T12:03:56;19.00;1.00
18717;DHT22;9487;50.892;6.906;2023-08-07T12:06:24;18.80;1.00
18717;DHT22;9487;50.892;6.906;2023-08-07T12:08:54;19.00;1.00
18717;DHT22;9487;50.892;6.906;2023-08-07T12:11:22;19.30;1.00
18717;DHT22;9487;50.892;6.906;2023-08-07T12:13:52;19.50;1.00
18717;DHT22;9487;50.892;6.906;2023-08-07T12:16:21;19.70;1.00
18717;DHT22;9487;50.892;6.906;2023-08-07T12:18:51;19.80;1.00
18717;DHT22;9487;50.892;6.906;2023-08-07T12:21:19;19.70;1.00
18717;DHT22;9487;50.892;6.906;2023-08-07T12:23:48;19.40;1.00
18717;DHT22;9487;50.892;6.906;2023-08-07T12:26:16;19.40;1.00
18717;DHT22;9487;50.892;6.906;2023-08-07T12:28:44;19.40;1.00
18717;DHT22;9487;50.892;6.906;2023-08-07T12:31:13;19.40;1.00
18717;DHT22;9487;50.892;6.906;2023-08-07T12:33:40;19.60;99.90
18717;DHT22;9487;50.892;6.906;2023-08-07T12:36:09;19.50;1.00
18717;DHT22;9487;50.892;6.906;2023-08-07T12:38:36;19.40;1.00
18717;DHT22;9487;50.892;6.906;2023-08-07T12:41:04;19.20;99.90
18717;DHT22;9487;50.892;6.906;2023-08-07T12:43:31;19.20;1.00
18717;DHT22;9487;50.892;6.906;2023-08-07T12:45:59;19.10;1.00
18717;DHT22;9487;50.892;6.906;2023-08-07T12:48:31;19.00;1.00
18717;DHT22;9487;50.892;6.906;2023-08-07T12:50:58;19.00;1.00
18717;DHT22;9487;50.892;6.906;2023-08-07T12:53:27;19.10;1.00
18717;DHT22;9487;50.892;6.906;2023-08-07T12:55:57;19.30;99.90
18717;DHT22;9487;50.892;6.906;2023-08-07T12:58:28;19.30;99.90
18717;DHT22;9487;50.892;6.906;2023-08-07T13:00:55;19.30;99.90
18717;DHT22;9487;50.892;6.906;2023-08-07T13:03:22;19.40;99.90
18717;DHT22;9487;50.892;6.906;2023-08-07T13:05:49;19.40;99.90
18717;DHT22;9487;50.892;6.906;2023-08-07T13:08:17;19.20;69.00
18717;DHT22;9487;50.892;6.906;2023-08-07T13:10:46;19.20;99.90
18717;DHT22;9487;50.892;6.906;2023-08-07T13:13:13;19.10;1.00
18717;DHT22;9487;50.892;6.906;2023-08-07T13:15:40;19.20;1.00
18717;DHT22;9487;50.892;6.906;2023-08-07T13:18:08;19.20;1.00
18717;DHT22;9487;50.892;6.906;2023-08-07T13:20:34;19.10;1.00
18717;DHT22;9487;50.892;6.906;2023-08-07T13:23:05;19.00;8.00
18717;DHT22;9487;50.892;6.906;2023-08-07T13:25:32;18.90;1.00
18717;DHT22;9487;50.892;6.906;2023-08-07T13:28:00;18.80;1.00
18717;DHT22;9487;50.892;6.906;2023-08-07T13:30:30;18.80;1.00
18717;DHT22;9487;50.892;6.906;2023-08-07T13:32:57;19.10;1.00
18717;DHT22;9487;50.892;6.906;2023-08-07T13:35:25;19.20;1.00
18717;DHT22;9487;50.892;6.906;2023-08-07T13:37:55;19.20;99.90
18717;DHT22;9487;50.892;6.906;2023-08-07T13:40:21;19.10;99.90
18717;DHT22;9487;50.892;6.906;2023-08-07T13:42:48;19.20;99.90
18717;DHT22;9487;50.892;6.906;2023-08-07T13:45:17;19.10;99.90
18717;DHT22;9487;50.892;6.906;2023-08-07T13:47:44;19.30;99.90
18717;DHT22;9487;50.892;6.906;2023-08-07T13:50:11;19.20;1.00
18717;DHT22;9487;50.892;6.906;2023-08-07T13:52:39;19.30;1.00
18717;DHT22;9487;50.892;6.906;2023-08-07T13:55:07;19.20;1.00
18717;DHT22;9487;50.892;6.906;2023-08-07T13:57:34;18.90;1.00
18717;DHT22;9487;50.892;6.906;2023-08-07T14:00:01;18.70;99.90
18717;DHT22;9487;50.892;6.906;2023-08-07T14:02:30;18.30;99.90
18717;DHT22;9487;50.892;6.906;2023-08-07T14:04:58;17.90;99.90
18717;DHT22;9487;50.892;6.906;2023-08-07T14:07:25;17.70;1.00
18717;DHT22;9487;50.892;6.906;2023-08-07T14:09:52;17.90;1.00
18717;DHT22;9487;50.892;6.906;2023-08-07T14:12:19;18.10;1.00
18717;DHT22;9487;50.892;6.906;2023-08-07T14:14:46;18.40;99.90
18717;DHT22;9487;50.892;6.906;2023-08-07T14:17:13;18.70;99.90
18717;DHT22;9487;50.892;6.906;2023-08-07T14:19:41;19.00;99.90
18717;DHT22;9487;50.892;6.906;2023-08-07T14:22:08;18.80;1.00
18717;DHT22;9487;50.892;6.906;2023-08-07T14:24:35;18.60;1.00
18717;DHT22;9487;50.892;6.906;2023-08-07T14:27:02;18.60;1.00
18717;DHT22;9487;50.892;6.906;2023-08-07T14:29:30;18.60;1.00
18717;DHT22;9487;50.892;6.906;2023-08-07T14:31:56;18.70;1.00
18717;DHT22;9487;50.892;6.906;2023-08-07T14:34:23;18.70;1.00
18717;DHT22;9487;50.892;6.906;2023-08-07T14:36:52;18.70;1.00
18717;DHT22;9487;50.892;6.906;2023-08-07T14:39:19;18.50;1.00
18717;DHT22;9487;50.892;6.906;2023-08-07T14:41:46;18.30;1.00
18717;DHT22;9487;50.892;6.906;2023-08-07T14:44:16;18.30;1.00
18717;DHT22;9487;50.892;6.906;2023-08-07T14:46:43;18.40;1.00
18717;DHT22;9487;50.892;6.906;2023-08-07T14:49:09;18.40;99.90
18717;DHT22;9487;50.892;6.906;2023-08-07T14:51:36;18.40;1.00
18717;DHT22;9487;50.892;6.906;2023-08-07T14:54:04;18.60;1.00
18717;DHT22;9487;50.892;6.906;2023-08-07T14:56:31;18.60;1.00
18717;DHT22;9487;50.892;6.906;2023-08-07T14:58:58;18.80;1.00
18717;DHT22;9487;50.892;6.906;2023-08-07T15:01:25;19.10;99.90
18717;DHT22;9487;50.892;6.906;2023-08-07T15:03:52;19.40;1.00
18717;DHT22;9487;50.892;6.906;2023-08-07T15:06:19;19.40;1.00
18717;DHT22;9487;50.892;6.906;2023-08-07T15:08:47;19.40;1.00
18717;DHT22;9487;50.892;6.906;2023-08-07T15:11:16;19.50;1.00
18717;DHT22;9487;50.892;6.906;2023-08-07T15:13:43;19.50;99.90
18717;DHT22;9487;50.892;6.906;2023-08-07T15:16:10;19.60;1.00
18717;DHT22;9487;50.892;6.906;2023-08-07T15:18:37;19.70;1.00
18717;DHT22;9487;50.892;6.906;2023-08-07T15:21:04;20.20;99.90
18717;DHT22;9487;50.892;6.906;2023-08-07T15:23:30;20.30;99.90
18717;DHT22;9487;50.892;6.906;2023-08-07T15:25:57;20.30;1.00
18717;DHT22;9487;50.892;6.906;2023-08-07T15:28:26;20.30;41.90
18717;DHT22;9487;50.892;6.906;2023-08-07T15:30:53;20.40;1.00
18717;DHT22;9487;50.892;6.906;2023-08-07T15:33:20;20.30;1.00
18717;DHT22;9487;50.892;6.906;2023-08-07T15:35:47;20.40;1.00
18717;DHT22;9487;50.892;6.906;2023-08-07T15:38:16;20.10;99.90
18717;DHT22;9487;50.892;6.906;2023-08-07T15:40:43;19.80;99.90
18717;DHT22;9487;50.892;6.906;2023-08-07T15:43:10;19.70;1.00
18717;DHT22;9487;50.892;6.906;2023-08-07T15:45:38;19.60;1.00
18717;DHT22;9487;50.892;6.906;2023-08-07T15:48:05;19.60;99.90
18717;DHT22;9487;50.892;6.906;2023-08-07T15:50:34;19.60;99.90
18717;DHT22;9487;50.892;6.906;2023-08-07T15:53:04;19.90;7.70
18717;DHT22;9487;50.892;6.906;2023-08-07T15:55:31;20.30;1.00
18717;DHT22;9487;50.892;6.906;2023-08-07T15:58:00;20.40;1.00